Cardinal, Virginia
Current Conditions -  °F | °C
As of 6:55 PM on Sunday 23 Nov 2014 (Local Time) from KW75 Reporting Station
Overcast Overcast  
Wind Chill: 49°   Ceiling: 2400
Heat Index: 49°   Visibility: 10mi
Dew Point: 46°   Wind: 0mph
Humidity: 90%   Direction: NA
Pressure: 30.05"   Gusts: NA
Location:  37.42°N, 76.38°W
Report Text: KW75 232355Z AUTO 00000KT 10SM BKN024 BKN037 OVC045 10/08 A3005 RMK AO1 T00950080 10111 20091
Loading
Personal Weather Stations






























Interactive Weather Map New forecast layout! Learn more

10-Day Weather Forecast

Advertisements
Track Severe Weather on mobile